sensor_id;sensor_type;location;lat;lon;timestamp;P1;durP1;ratioP1;P2;durP2;ratioP2
40367;SDS011;26075;43.320;21.920;2023-04-24T00:02:15;15.45;;;8.40;;
40367;SDS011;26075;43.320;21.920;2023-04-24T00:07:16;14.25;;;8.60;;
40367;SDS011;26075;43.320;21.920;2023-04-24T00:12:17;14.30;;;8.45;;
40367;SDS011;26075;43.320;21.920;2023-04-24T00:17:18;12.75;;;8.50;;
40367;SDS011;26075;43.320;21.920;2023-04-24T00:22:20;13.18;;;8.15;;
40367;SDS011;26075;43.320;21.920;2023-04-24T00:27:22;16.73;;;8.65;;
40367;SDS011;26075;43.320;21.920;2023-04-24T00:32:23;13.57;;;8.25;;
40367;SDS011;26075;43.320;21.920;2023-04-24T00:43:21;14.27;;;7.70;;
40367;SDS011;26075;43.320;21.920;2023-04-24T00:48:22;12.95;;;8.63;;
40367;SDS011;26075;43.320;21.920;2023-04-24T00:59:18;14.65;;;8.13;;
40367;SDS011;26075;43.320;21.920;2023-04-24T01:04:19;12.15;;;7.57;;
40367;SDS011;26075;43.320;21.920;2023-04-24T01:09:20;11.82;;;7.20;;
40367;SDS011;26075;43.320;21.920;2023-04-24T01:14:23;11.02;;;7.70;;
40367;SDS011;26075;43.320;21.920;2023-04-24T01:19:24;12.57;;;7.78;;
40367;SDS011;26075;43.320;21.920;2023-04-24T01:24:25;12.63;;;7.10;;
40367;SDS011;26075;43.320;21.920;2023-04-24T01:35:20;9.02;;;6.95;;
40367;SDS011;26075;43.320;21.920;2023-04-24T01:40:21;12.10;;;6.65;;
40367;SDS011;26075;43.320;21.920;2023-04-24T01:45:23;14.25;;;6.70;;
40367;SDS011;26075;43.320;21.920;2023-04-24T01:56:20;9.75;;;6.38;;
40367;SDS011;26075;43.320;21.920;2023-04-24T02:01:23;9.13;;;6.28;;
40367;SDS011;26075;43.320;21.920;2023-04-24T02:06:24;8.80;;;6.03;;
40367;SDS011;26075;43.320;21.920;2023-04-24T02:17:22;9.20;;;6.20;;
40367;SDS011;26075;43.320;21.920;2023-04-24T02:22:23;10.95;;;6.35;;
40367;SDS011;26075;43.320;21.920;2023-04-24T02:27:25;15.55;;;7.18;;
40367;SDS011;26075;43.320;21.920;2023-04-24T02:38:17;8.68;;;5.63;;
40367;SDS011;26075;43.320;21.920;2023-04-24T02:43:18;9.95;;;5.82;;
40367;SDS011;26075;43.320;21.920;2023-04-24T02:48:20;8.40;;;6.20;;
40367;SDS011;26075;43.320;21.920;2023-04-24T03:04:18;11.18;;;6.50;;
40367;SDS011;26075;43.320;21.920;2023-04-24T03:09:20;10.68;;;6.15;;
40367;SDS011;26075;43.320;21.920;2023-04-24T03:25:18;9.35;;;5.65;;
40367;SDS011;26075;43.320;21.920;2023-04-24T03:30:19;9.25;;;5.68;;
40367;SDS011;26075;43.320;21.920;2023-04-24T03:35:20;13.93;;;5.65;;
40367;SDS011;26075;43.320;21.920;2023-04-24T03:40:22;8.57;;;5.75;;
40367;SDS011;26075;43.320;21.920;2023-04-24T03:45:23;10.05;;;5.93;;
40367;SDS011;26075;43.320;21.920;2023-04-24T03:50:24;13.57;;;5.82;;
40367;SDS011;26075;43.320;21.920;2023-04-24T04:01:23;11.32;;;6.68;;
40367;SDS011;26075;43.320;21.920;2023-04-24T04:06:24;8.93;;;6.40;;
40367;SDS011;26075;43.320;21.920;2023-04-24T04:11:25;9.55;;;6.80;;
40367;SDS011;26075;43.320;21.920;2023-04-24T04:16:26;11.52;;;6.90;;
40367;SDS011;26075;43.320;21.920;2023-04-24T04:21:27;15.35;;;6.30;;
40367;SDS011;26075;43.320;21.920;2023-04-24T04:26:28;10.07;;;6.22;;
40367;SDS011;26075;43.320;21.920;2023-04-24T04:31:32;10.80;;;6.40;;
40367;SDS011;26075;43.320;21.920;2023-04-24T04:36:42;13.25;;;6.28;;
40367;SDS011;26075;43.320;21.920;2023-04-24T04:41:44;10.68;;;6.03;;
40367;SDS011;26075;43.320;21.920;2023-04-24T04:46:48;9.77;;;6.40;;
40367;SDS011;26075;43.320;21.920;2023-04-24T05:02:47;10.15;;;6.03;;
40367;SDS011;26075;43.320;21.920;2023-04-24T05:07:48;11.50;;;5.97;;
40367;SDS011;26075;43.320;21.920;2023-04-24T05:12:49;8.70;;;5.93;;
40367;SDS011;26075;43.320;21.920;2023-04-24T05:28:47;6.32;;;4.32;;
40367;SDS011;26075;43.320;21.920;2023-04-24T05:33:48;11.73;;;6.10;;
40367;SDS011;26075;43.320;21.920;2023-04-24T05:44:45;13.73;;;7.10;;
40367;SDS011;26075;43.320;21.920;2023-04-24T05:49:47;14.90;;;7.80;;
40367;SDS011;26075;43.320;21.920;2023-04-24T05:54:48;14.27;;;8.90;;
40367;SDS011;26075;43.320;21.920;2023-04-24T05:59:49;16.70;;;8.70;;
40367;SDS011;26075;43.320;21.920;2023-04-24T06:04:51;11.07;;;6.70;;
40367;SDS011;26075;43.320;21.920;2023-04-24T06:09:51;14.40;;;7.60;;
40367;SDS011;26075;43.320;21.920;2023-04-24T06:14:53;8.57;;;6.47;;
40367;SDS011;26075;43.320;21.920;2023-04-24T06:25:52;13.13;;;7.68;;
40367;SDS011;26075;43.320;21.920;2023-04-24T06:30:53;9.98;;;6.53;;
40367;SDS011;26075;43.320;21.920;2023-04-24T06:41:18;7.85;;;6.03;;
40367;SDS011;26075;43.320;21.920;2023-04-24T06:46:19;14.65;;;5.93;;
40367;SDS011;26075;43.320;21.920;2023-04-24T06:51:23;11.43;;;5.40;;
40367;SDS011;26075;43.320;21.920;2023-04-24T06:56:26;17.15;;;5.88;;
40367;SDS011;26075;43.320;21.920;2023-04-24T07:01:26;9.65;;;5.43;;
40367;SDS011;26075;43.320;21.920;2023-04-24T07:12:24;10.27;;;6.40;;
40367;SDS011;26075;43.320;21.920;2023-04-24T07:17:25;13.55;;;5.90;;
40367;SDS011;26075;43.320;21.920;2023-04-24T07:22:25;7.45;;;5.22;;
40367;SDS011;26075;43.320;21.920;2023-04-24T07:33:15;14.13;;;6.07;;
40367;SDS011;26075;43.320;21.920;2023-04-24T07:38:26;8.40;;;5.15;;
40367;SDS011;26075;43.320;21.920;2023-04-24T07:43:29;12.25;;;5.40;;
40367;SDS011;26075;43.320;21.920;2023-04-24T07:48:30;8.07;;;4.75;;
40367;SDS011;26075;43.320;21.920;2023-04-24T07:53:31;7.43;;;5.07;;
40367;SDS011;26075;43.320;21.920;2023-04-24T07:58:32;8.02;;;4.45;;
40367;SDS011;26075;43.320;21.920;2023-04-24T08:03:33;9.90;;;5.13;;
40367;SDS011;26075;43.320;21.920;2023-04-24T08:14:31;7.95;;;5.03;;
40367;SDS011;26075;43.320;21.920;2023-04-24T08:19:42;11.02;;;5.53;;
40367;SDS011;26075;43.320;21.920;2023-04-24T08:24:48;7.55;;;4.47;;
40367;SDS011;26075;43.320;21.920;2023-04-24T08:29:49;8.25;;;5.28;;
40367;SDS011;26075;43.320;21.920;2023-04-24T08:34:57;8.07;;;5.10;;
40367;SDS011;26075;43.320;21.920;2023-04-24T08:39:58;7.65;;;4.25;;
40367;SDS011;26075;43.320;21.920;2023-04-24T08:44:59;10.93;;;5.20;;
40367;SDS011;26075;43.320;21.920;2023-04-24T08:50:03;7.15;;;4.63;;
40367;SDS011;26075;43.320;21.920;2023-04-24T08:55:07;8.65;;;5.35;;
40367;SDS011;26075;43.320;21.920;2023-04-24T09:00:08;11.25;;;5.40;;
40367;SDS011;26075;43.320;21.920;2023-04-24T09:05:12;8.10;;;5.18;;
40367;SDS011;26075;43.320;21.920;2023-04-24T09:10:26;9.30;;;4.72;;
40367;SDS011;26075;43.320;21.920;2023-04-24T09:15:28;9.63;;;4.35;;
40367;SDS011;26075;43.320;21.920;2023-04-24T09:20:56;7.55;;;4.40;;
40367;SDS011;26075;43.320;21.920;2023-04-24T09:26:03;7.70;;;4.45;;
40367;SDS011;26075;43.320;21.920;2023-04-24T09:31:14;7.47;;;4.40;;
40367;SDS011;26075;43.320;21.920;2023-04-24T09:36:18;7.63;;;4.82;;
40367;SDS011;26075;43.320;21.920;2023-04-24T09:47:15;24.98;;;7.38;;
40367;SDS011;26075;43.320;21.920;2023-04-24T09:58:10;14.13;;;5.25;;
40367;SDS011;26075;43.320;21.920;2023-04-24T10:14:21;8.10;;;5.63;;
40367;SDS011;26075;43.320;21.920;2023-04-24T10:19:25;10.65;;;4.78;;
40367;SDS011;26075;43.320;21.920;2023-04-24T10:36:21;9.32;;;4.30;;
40367;SDS011;26075;43.320;21.920;2023-04-24T10:41:25;8.23;;;4.72;;
40367;SDS011;26075;43.320;21.920;2023-04-24T10:46:26;10.55;;;5.15;;
40367;SDS011;26075;43.320;21.920;2023-04-24T10:51:50;8.83;;;4.53;;
40367;SDS011;26075;43.320;21.920;2023-04-24T10:56:53;6.82;;;5.25;;
40367;SDS011;26075;43.320;21.920;2023-04-24T11:02:24;7.05;;;5.32;;
40367;SDS011;26075;43.320;21.920;2023-04-24T11:19:04;11.52;;;5.65;;
40367;SDS011;26075;43.320;21.920;2023-04-24T11:29:40;6.75;;;4.47;;
40367;SDS011;26075;43.320;21.920;2023-04-24T11:34:47;11.27;;;5.63;;
40367;SDS011;26075;43.320;21.920;2023-04-24T11:39:50;12.77;;;5.40;;
40367;SDS011;26075;43.320;21.920;2023-04-24T11:44:53;11.20;;;5.35;;
40367;SDS011;26075;43.320;21.920;2023-04-24T11:49:55;8.52;;;5.30;;
40367;SDS011;26075;43.320;21.920;2023-04-24T11:54:56;8.25;;;5.60;;
40367;SDS011;26075;43.320;21.920;2023-04-24T11:59:57;15.98;;;6.85;;
40367;SDS011;26075;43.320;21.920;2023-04-24T12:05:06;11.77;;;5.95;;
40367;SDS011;26075;43.320;21.920;2023-04-24T12:10:07;10.48;;;5.78;;
40367;SDS011;26075;43.320;21.920;2023-04-24T12:15:15;17.73;;;6.47;;
40367;SDS011;26075;43.320;21.920;2023-04-24T12:20:17;8.73;;;5.53;;
40367;SDS011;26075;43.320;21.920;2023-04-24T12:25:24;11.57;;;5.32;;
40367;SDS011;26075;43.320;21.920;2023-04-24T12:30:26;8.55;;;5.40;;
40367;SDS011;26075;43.320;21.920;2023-04-24T12:35:31;10.83;;;5.53;;
40367;SDS011;26075;43.320;21.920;2023-04-24T12:40:33;7.60;;;4.70;;
40367;SDS011;26075;43.320;21.920;2023-04-24T12:45:34;10.23;;;5.32;;
40367;SDS011;26075;43.320;21.920;2023-04-24T12:50:35;9.60;;;6.50;;
40367;SDS011;26075;43.320;21.920;2023-04-24T12:55:36;8.55;;;6.32;;
40367;SDS011;26075;43.320;21.920;2023-04-24T13:00:38;8.40;;;5.88;;
40367;SDS011;26075;43.320;21.920;2023-04-24T13:05:39;9.50;;;6.30;;
40367;SDS011;26075;43.320;21.920;2023-04-24T13:10:42;7.80;;;5.85;;
40367;SDS011;26075;43.320;21.920;2023-04-24T13:15:52;9.43;;;6.10;;
40367;SDS011;26075;43.320;21.920;2023-04-24T13:20:52;11.75;;;5.18;;
40367;SDS011;26075;43.320;21.920;2023-04-24T13:25:53;8.70;;;5.70;;
40367;SDS011;26075;43.320;21.920;2023-04-24T13:30:57;8.02;;;5.57;;
40367;SDS011;26075;43.320;21.920;2023-04-24T13:35:58;9.85;;;5.78;;
40367;SDS011;26075;43.320;21.920;2023-04-24T13:41:00;10.15;;;5.15;;
40367;SDS011;26075;43.320;21.920;2023-04-24T13:46:00;11.82;;;4.68;;
40367;SDS011;26075;43.320;21.920;2023-04-24T13:51:03;9.73;;;4.30;;
40367;SDS011;26075;43.320;21.920;2023-04-24T13:56:04;7.20;;;4.40;;
40367;SDS011;26075;43.320;21.920;2023-04-24T14:01:08;8.38;;;4.18;;
40367;SDS011;26075;43.320;21.920;2023-04-24T14:06:10;9.43;;;4.88;;
40367;SDS011;26075;43.320;21.920;2023-04-24T14:11:12;8.35;;;4.07;;
40367;SDS011;26075;43.320;21.920;2023-04-24T14:16:13;8.68;;;4.07;;
40367;SDS011;26075;43.320;21.920;2023-04-24T14:21:14;14.30;;;5.50;;
40367;SDS011;26075;43.320;21.920;2023-04-24T14:26:15;13.50;;;4.72;;
40367;SDS011;26075;43.320;21.920;2023-04-24T14:31:17;7.35;;;4.30;;
40367;SDS011;26075;43.320;21.920;2023-04-24T14:36:18;9.73;;;4.22;;
40367;SDS011;26075;43.320;21.920;2023-04-24T14:41:19;9.27;;;4.03;;
40367;SDS011;26075;43.320;21.920;2023-04-24T14:46:20;6.15;;;3.72;;
40367;SDS011;26075;43.320;21.920;2023-04-24T14:51:20;4.72;;;3.38;;
40367;SDS011;26075;43.320;21.920;2023-04-24T14:56:21;6.13;;;3.97;;
40367;SDS011;26075;43.320;21.920;2023-04-24T15:01:32;6.95;;;3.78;;
40367;SDS011;26075;43.320;21.920;2023-04-24T15:06:33;4.95;;;3.35;;
40367;SDS011;26075;43.320;21.920;2023-04-24T15:11:33;7.18;;;4.07;;
40367;SDS011;26075;43.320;21.920;2023-04-24T15:16:35;6.07;;;4.00;;
40367;SDS011;26075;43.320;21.920;2023-04-24T15:44:51;8.43;;;5.85;;
40367;SDS011;26075;43.320;21.920;2023-04-24T15:49:52;11.63;;;6.03;;
40367;SDS011;26075;43.320;21.920;2023-04-24T15:54:53;12.30;;;5.57;;
40367;SDS011;26075;43.320;21.920;2023-04-24T15:59:54;15.68;;;6.30;;
40367;SDS011;26075;43.320;21.920;2023-04-24T16:04:57;10.27;;;6.05;;
40367;SDS011;26075;43.320;21.920;2023-04-24T16:10:03;14.10;;;5.95;;
40367;SDS011;26075;43.320;21.920;2023-04-24T16:15:04;17.77;;;6.15;;
40367;SDS011;26075;43.320;21.920;2023-04-24T16:20:05;16.65;;;8.95;;
40367;SDS011;26075;43.320;21.920;2023-04-24T16:25:07;19.95;;;10.23;;
40367;SDS011;26075;43.320;21.920;2023-04-24T16:30:09;13.85;;;7.90;;
40367;SDS011;26075;43.320;21.920;2023-04-24T16:35:10;17.65;;;7.65;;
40367;SDS011;26075;43.320;21.920;2023-04-24T16:40:11;13.07;;;6.82;;
40367;SDS011;26075;43.320;21.920;2023-04-24T16:45:11;12.27;;;7.18;;
40367;SDS011;26075;43.320;21.920;2023-04-24T16:50:12;14.70;;;7.25;;
40367;SDS011;26075;43.320;21.920;2023-04-24T16:55:14;12.00;;;7.20;;
40367;SDS011;26075;43.320;21.920;2023-04-24T17:00:15;12.55;;;7.28;;
40367;SDS011;26075;43.320;21.920;2023-04-24T17:05:16;13.25;;;7.30;;
40367;SDS011;26075;43.320;21.920;2023-04-24T17:10:19;10.85;;;6.88;;
40367;SDS011;26075;43.320;21.920;2023-04-24T17:15:20;11.85;;;6.20;;
40367;SDS011;26075;43.320;21.920;2023-04-24T17:20:21;11.23;;;7.00;;
40367;SDS011;26075;43.320;21.920;2023-04-24T17:25:22;11.98;;;7.07;;
40367;SDS011;26075;43.320;21.920;2023-04-24T17:30:26;10.50;;;7.40;;
40367;SDS011;26075;43.320;21.920;2023-04-24T17:35:28;10.40;;;6.63;;
40367;SDS011;26075;43.320;21.920;2023-04-24T17:40:28;13.80;;;6.40;;
40367;SDS011;26075;43.320;21.920;2023-04-24T17:45:29;10.90;;;6.60;;
40367;SDS011;26075;43.320;21.920;2023-04-24T17:50:31;10.48;;;6.93;;
40367;SDS011;26075;43.320;21.920;2023-04-24T17:55:32;8.43;;;6.10;;
40367;SDS011;26075;43.320;21.920;2023-04-24T18:00:43;11.55;;;6.90;;
40367;SDS011;26075;43.320;21.920;2023-04-24T18:05:43;10.18;;;7.32;;
40367;SDS011;26075;43.320;21.920;2023-04-24T18:10:45;10.77;;;7.13;;
40367;SDS011;26075;43.320;21.920;2023-04-24T18:15:47;11.48;;;7.30;;
40367;SDS011;26075;43.320;21.920;2023-04-24T18:20:49;10.23;;;6.20;;
40367;SDS011;26075;43.320;21.920;2023-04-24T18:25:50;9.45;;;6.15;;
40367;SDS011;26075;43.320;21.920;2023-04-24T18:30:51;9.70;;;5.22;;
40367;SDS011;26075;43.320;21.920;2023-04-24T18:35:53;12.75;;;6.18;;
40367;SDS011;26075;43.320;21.920;2023-04-24T18:41:12;11.20;;;5.85;;
40367;SDS011;26075;43.320;21.920;2023-04-24T18:46:13;13.25;;;5.57;;
40367;SDS011;26075;43.320;21.920;2023-04-24T18:51:14;11.65;;;5.93;;
40367;SDS011;26075;43.320;21.920;2023-04-24T18:56:15;13.43;;;5.70;;
40367;SDS011;26075;43.320;21.920;2023-04-24T19:07:13;10.93;;;5.50;;
40367;SDS011;26075;43.320;21.920;2023-04-24T19:12:15;14.18;;;6.70;;
40367;SDS011;26075;43.320;21.920;2023-04-24T19:17:16;11.00;;;6.30;;
40367;SDS011;26075;43.320;21.920;2023-04-24T19:28:19;12.93;;;6.85;;
40367;SDS011;26075;43.320;21.920;2023-04-24T19:33:22;10.13;;;6.30;;
40367;SDS011;26075;43.320;21.920;2023-04-24T19:38:24;11.75;;;6.50;;
40367;SDS011;26075;43.320;21.920;2023-04-24T19:43:39;11.13;;;6.78;;
40367;SDS011;26075;43.320;21.920;2023-04-24T19:48:45;15.75;;;8.00;;
40367;SDS011;26075;43.320;21.920;2023-04-24T19:53:46;12.98;;;7.63;;
40367;SDS011;26075;43.320;21.920;2023-04-24T19:58:48;12.73;;;7.55;;
40367;SDS011;26075;43.320;21.920;2023-04-24T20:03:59;13.10;;;7.03;;
40367;SDS011;26075;43.320;21.920;2023-04-24T20:09:01;14.52;;;7.82;;
40367;SDS011;26075;43.320;21.920;2023-04-24T20:14:17;13.63;;;7.30;;
40367;SDS011;26075;43.320;21.920;2023-04-24T20:19:18;9.73;;;6.65;;
40367;SDS011;26075;43.320;21.920;2023-04-24T20:24:21;10.32;;;6.47;;
40367;SDS011;26075;43.320;21.920;2023-04-24T20:34:57;11.60;;;7.57;;
40367;SDS011;26075;43.320;21.920;2023-04-24T20:39:59;11.15;;;7.10;;
40367;SDS011;26075;43.320;21.920;2023-04-24T20:50:33;13.93;;;7.53;;
40367;SDS011;26075;43.320;21.920;2023-04-24T21:06:42;15.00;;;7.63;;
40367;SDS011;26075;43.320;21.920;2023-04-24T21:11:43;25.58;;;16.38;;
40367;SDS011;26075;43.320;21.920;2023-04-24T21:16:43;19.50;;;14.45;;
40367;SDS011;26075;43.320;21.920;2023-04-24T21:21:44;14.10;;;9.13;;
40367;SDS011;26075;43.320;21.920;2023-04-24T21:26:48;13.73;;;9.25;;
40367;SDS011;26075;43.320;21.920;2023-04-24T21:31:49;9.05;;;5.82;;
40367;SDS011;26075;43.320;21.920;2023-04-24T21:42:15;8.13;;;4.63;;
40367;SDS011;26075;43.320;21.920;2023-04-24T21:47:16;8.35;;;5.45;;
40367;SDS011;26075;43.320;21.920;2023-04-24T21:52:17;11.85;;;4.35;;
40367;SDS011;26075;43.320;21.920;2023-04-24T21:57:18;5.10;;;3.20;;
40367;SDS011;26075;43.320;21.920;2023-04-24T22:02:19;9.23;;;3.80;;
40367;SDS011;26075;43.320;21.920;2023-04-24T22:07:20;11.45;;;4.07;;
40367;SDS011;26075;43.320;21.920;2023-04-24T22:12:21;6.53;;;3.22;;
40367;SDS011;26075;43.320;21.920;2023-04-24T22:17:22;7.05;;;3.90;;
40367;SDS011;26075;43.320;21.920;2023-04-24T22:22:23;4.85;;;2.55;;
40367;SDS011;26075;43.320;21.920;2023-04-24T22:33:20;7.82;;;3.53;;
40367;SDS011;26075;43.320;21.920;2023-04-24T22:38:21;5.63;;;3.10;;
40367;SDS011;26075;43.320;21.920;2023-04-24T22:49:19;4.97;;;1.60;;
40367;SDS011;26075;43.320;21.920;2023-04-24T22:54:21;6.18;;;1.60;;
40367;SDS011;26075;43.320;21.920;2023-04-24T22:59:22;4.45;;;1.73;;
40367;SDS011;26075;43.320;21.920;2023-04-24T23:04:23;4.82;;;1.60;;
40367;SDS011;26075;43.320;21.920;2023-04-24T23:09:25;3.92;;;1.67;;
40367;SDS011;26075;43.320;21.920;2023-04-24T23:14:25;10.02;;;3.70;;
40367;SDS011;26075;43.320;21.920;2023-04-24T23:19:26;3.45;;;1.70;;
40367;SDS011;26075;43.320;21.920;2023-04-24T23:24:27;4.97;;;1.40;;
40367;SDS011;26075;43.320;21.920;2023-04-24T23:29:27;3.58;;;1.42;;
40367;SDS011;26075;43.320;21.920;2023-04-24T23:34:29;5.43;;;1.73;;
40367;SDS011;26075;43.320;21.920;2023-04-24T23:39:34;4.82;;;1.40;;
40367;SDS011;26075;43.320;21.920;2023-04-24T23:44:35;4.10;;;1.73;;
40367;SDS011;26075;43.320;21.920;2023-04-24T23:49:36;6.35;;;1.38;;
40367;SDS011;26075;43.320;21.920;2023-04-24T23:54:36;4.72;;;1.52;;
40367;SDS011;26075;43.320;21.920;2023-04-24T23:59:38;2.58;;;0.90;;
